createdAt,value
2017-03-21T00:00:53.838Z,998.56
2017-03-21T00:01:53.861Z,998.62
2017-03-21T00:02:53.884Z,998.56
2017-03-21T00:03:53.905Z,998.57
2017-03-21T00:04:53.927Z,998.54
2017-03-21T00:05:53.949Z,998.56
2017-03-21T00:06:53.969Z,998.56
2017-03-21T00:07:53.992Z,998.52
2017-03-21T00:08:54.014Z,998.52
2017-03-21T00:09:54.037Z,998.55
2017-03-21T00:10:54.057Z,998.54
2017-03-21T00:11:54.079Z,998.51
2017-03-21T00:12:54.104Z,998.53
2017-03-21T00:13:54.127Z,998.57
2017-03-21T00:14:54.145Z,998.53
2017-03-21T00:15:54.167Z,998.6
2017-03-21T00:16:54.189Z,998.57
2017-03-21T00:17:54.210Z,998.57
2017-03-21T00:19:54.287Z,998.55
2017-03-21T00:20:54.276Z,998.58
2017-03-21T00:21:54.298Z,998.57
2017-03-21T00:22:54.320Z,998.56
2017-03-21T00:23:54.342Z,998.57
2017-03-21T00:24:54.365Z,998.58
2017-03-21T00:25:54.385Z,998.57
2017-03-21T00:26:54.407Z,998.59
2017-03-21T00:27:54.429Z,998.61
2017-03-21T00:28:54.451Z,998.57
2017-03-21T00:29:54.473Z,998.59
2017-03-21T00:30:54.495Z,998.56
2017-03-21T00:31:54.517Z,998.62
2017-03-21T00:32:54.537Z,998.57
2017-03-21T00:33:54.561Z,998.55
2017-03-21T00:35:54.604Z,998.54
2017-03-21T00:36:54.625Z,998.53
2017-03-21T00:37:54.647Z,998.54
2017-03-21T00:38:54.670Z,998.56
2017-03-21T00:39:54.691Z,998.59
2017-03-21T00:40:54.712Z,998.58
2017-03-21T00:41:54.735Z,998.55
2017-03-21T00:42:54.758Z,998.58
2017-03-21T00:43:54.779Z,998.61
2017-03-21T00:44:54.801Z,998.61
2017-03-21T00:45:54.822Z,998.62
2017-03-21T00:46:54.845Z,998.63
2017-03-21T00:47:54.866Z,998.62
2017-03-21T00:48:54.888Z,998.72
2017-03-21T00:49:54.911Z,998.58
2017-03-21T00:51:54.952Z,998.6
2017-03-21T00:52:54.976Z,998.61
2017-03-21T00:53:54.998Z,998.64
2017-03-21T00:54:55.019Z,998.61
2017-03-21T00:55:55.040Z,998.67
2017-03-21T00:56:55.062Z,998.62
2017-03-21T00:57:55.085Z,998.67
2017-03-21T00:58:55.106Z,998.68
2017-03-21T00:59:55.128Z,998.68
2017-03-21T01:00:55.150Z,998.72
2017-03-21T01:01:55.171Z,998.74
2017-03-21T01:02:55.193Z,998.72
2017-03-21T01:03:55.216Z,998.71
2017-03-21T01:04:55.239Z,998.72
2017-03-21T01:05:55.258Z,998.72
2017-03-21T01:07:55.303Z,998.72
2017-03-21T01:08:55.326Z,998.73
2017-03-21T01:09:55.346Z,998.75
2017-03-21T01:10:55.368Z,998.68
2017-03-21T01:11:55.390Z,998.77
2017-03-21T01:12:55.411Z,998.73
2017-03-21T01:13:55.434Z,998.71
2017-03-21T01:14:55.459Z,998.75
2017-03-21T01:15:55.478Z,998.74
2017-03-21T01:16:55.498Z,998.75
2017-03-21T01:17:55.521Z,998.69
2017-03-21T01:18:55.543Z,998.75
2017-03-21T01:19:55.565Z,998.68
2017-03-21T01:20:55.587Z,998.74
2017-03-21T01:22:55.631Z,998.66
2017-03-21T01:23:55.652Z,998.72
2017-03-21T01:24:55.675Z,998.64
2017-03-21T01:25:55.696Z,998.69
2017-03-21T01:26:55.719Z,998.72
2017-03-21T01:27:55.741Z,998.74
2017-03-21T01:28:55.762Z,998.71
2017-03-21T01:29:55.784Z,998.74
2017-03-21T01:30:55.805Z,998.71
2017-03-21T01:31:55.826Z,998.8
2017-03-21T01:32:55.849Z,998.74
2017-03-21T01:33:55.871Z,998.76
2017-03-21T01:34:55.892Z,998.75
2017-03-21T01:35:55.913Z,998.77
2017-03-21T01:36:55.936Z,998.75
2017-03-21T01:37:55.957Z,998.75
2017-03-21T01:38:55.979Z,998.74
2017-03-21T01:39:56.001Z,998.73
2017-03-21T01:40:56.023Z,998.76
2017-03-21T01:41:56.045Z,998.76
2017-03-21T01:42:56.066Z,998.72
2017-03-21T01:43:56.439Z,998.71
2017-03-21T01:44:56.111Z,998.69
2017-03-21T01:45:56.131Z,998.73
2017-03-21T01:46:56.153Z,998.71
2017-03-21T01:47:56.175Z,998.74
2017-03-21T01:48:56.198Z,998.71
2017-03-21T01:49:56.219Z,998.73
2017-03-21T01:50:56.242Z,998.73
2017-03-21T01:51:56.262Z,998.69
2017-03-21T01:52:56.284Z,998.7
2017-03-21T01:54:56.328Z,998.7
2017-03-21T01:55:56.350Z,998.69
2017-03-21T01:56:56.370Z,998.68
2017-03-21T01:57:56.392Z,998.69
2017-03-21T01:58:56.415Z,998.69
2017-03-21T01:59:56.437Z,998.72
2017-03-21T02:00:56.457Z,998.7
2017-03-21T02:01:56.479Z,998.64
2017-03-21T02:02:56.502Z,998.64
2017-03-21T02:03:56.522Z,998.72
2017-03-21T02:04:56.544Z,998.68
2017-03-21T02:05:56.566Z,998.64
2017-03-21T02:06:56.598Z,998.68
2017-03-21T02:07:56.609Z,998.7
2017-03-21T02:08:56.680Z,998.68
2017-03-21T02:10:56.675Z,998.68
2017-03-21T02:11:56.697Z,998.65
2017-03-21T02:12:56.719Z,998.72
2017-03-21T02:13:56.741Z,998.66
2017-03-21T02:14:56.762Z,998.71
2017-03-21T02:15:56.782Z,998.71
2017-03-21T02:16:56.808Z,998.71
2017-03-21T02:17:56.827Z,998.73
2017-03-21T02:18:56.849Z,998.73
2017-03-21T02:19:56.870Z,998.71
2017-03-21T02:20:56.892Z,998.75
2017-03-21T02:21:56.915Z,998.71
2017-03-21T02:22:56.935Z,998.62
2017-03-21T02:23:56.957Z,998.7
2017-03-21T02:24:56.979Z,998.68
2017-03-21T02:26:57.022Z,998.66
2017-03-21T02:27:57.044Z,998.72
2017-03-21T02:28:57.066Z,998.63
2017-03-21T02:29:57.087Z,998.67
2017-03-21T02:30:57.108Z,998.61
2017-03-21T02:31:57.131Z,998.72
2017-03-21T02:32:57.153Z,998.66
2017-03-21T02:33:57.173Z,998.65
2017-03-21T02:34:57.196Z,998.64
2017-03-21T02:35:57.217Z,998.61
2017-03-21T02:36:57.239Z,998.61
2017-03-21T02:37:57.261Z,998.6
2017-03-21T02:38:57.282Z,998.64
2017-03-21T02:39:57.304Z,998.62
2017-03-21T02:40:57.325Z,998.6
2017-03-21T02:42:57.369Z,998.61
2017-03-21T02:43:57.392Z,998.7
2017-03-21T02:44:57.412Z,998.66
2017-03-21T02:45:57.434Z,998.71
2017-03-21T02:46:57.456Z,998.66
2017-03-21T02:47:57.476Z,998.7
2017-03-21T02:48:57.499Z,998.69
2017-03-21T02:49:57.521Z,998.67
2017-03-21T02:50:57.542Z,998.69
2017-03-21T02:51:57.564Z,998.7
2017-03-21T02:52:57.586Z,998.67
2017-03-21T02:53:57.608Z,998.69
2017-03-21T02:54:57.630Z,998.71
2017-03-21T02:55:57.651Z,998.68
2017-03-21T02:57:57.696Z,998.81
2017-03-21T02:58:57.716Z,998.72
2017-03-21T02:59:57.737Z,998.73
2017-03-21T03:00:57.760Z,998.76
2017-03-21T03:01:57.783Z,998.77
2017-03-21T03:02:57.803Z,998.79
2017-03-21T03:03:57.825Z,998.76
2017-03-21T03:04:57.847Z,998.76
2017-03-21T03:05:57.868Z,998.8
2017-03-21T03:06:57.890Z,998.83
2017-03-21T03:07:57.912Z,998.83
2017-03-21T03:08:57.933Z,998.84
2017-03-21T03:09:57.955Z,998.87
2017-03-21T03:10:57.976Z,998.82
2017-03-21T03:11:57.999Z,998.83
2017-03-21T03:12:58.020Z,998.86
2017-03-21T03:13:58.041Z,998.79
2017-03-21T03:14:58.064Z,998.81
2017-03-21T03:15:58.085Z,998.84
2017-03-21T03:16:58.106Z,998.89
2017-03-21T03:17:58.135Z,998.81
2017-03-21T03:18:58.150Z,998.88
2017-03-21T03:19:58.172Z,998.9
2017-03-21T03:20:58.192Z,998.87
2017-03-21T03:21:58.214Z,998.91
2017-03-21T03:22:58.237Z,998.91
2017-03-21T03:23:58.259Z,998.93
2017-03-21T03:24:58.280Z,998.91
2017-03-21T03:25:58.301Z,998.91
2017-03-21T03:26:58.323Z,998.96
2017-03-21T03:27:58.494Z,998.97
2017-03-21T03:29:58.388Z,998.97
2017-03-21T03:30:58.409Z,998.95
2017-03-21T03:31:58.430Z,998.93
2017-03-21T03:32:58.452Z,998.94
2017-03-21T03:33:58.474Z,998.92
2017-03-21T03:34:58.498Z,998.91
2017-03-21T03:35:58.517Z,998.84
2017-03-21T03:36:58.539Z,998.97
2017-03-21T03:37:58.561Z,998.86
2017-03-21T03:38:58.588Z,998.9
2017-03-21T03:39:58.604Z,998.94
2017-03-21T03:40:58.625Z,998.99
2017-03-21T03:41:58.647Z,998.99
2017-03-21T03:42:58.669Z,998.96
2017-03-21T03:43:58.691Z,998.9
2017-03-21T03:45:58.734Z,998.96
2017-03-21T03:46:58.755Z,998.94
2017-03-21T03:47:58.777Z,998.99
2017-03-21T03:48:58.799Z,998.94
2017-03-21T03:49:58.819Z,998.97
2017-03-21T03:50:58.841Z,998.98
2017-03-21T03:51:58.864Z,999
2017-03-21T03:52:58.886Z,999
2017-03-21T03:53:58.907Z,999
2017-03-21T03:54:58.929Z,999.06
2017-03-21T03:55:58.950Z,999.1
2017-03-21T03:56:58.972Z,999.09
2017-03-21T03:57:58.993Z,999.06
2017-03-21T03:58:59.015Z,999.03
2017-03-21T03:59:59.037Z,999.1
2017-03-21T04:01:59.080Z,999.11
2017-03-21T04:02:59.102Z,999.09
2017-03-21T04:03:59.124Z,999.11
2017-03-21T04:04:59.145Z,999.15
2017-03-21T04:05:59.166Z,999.13
2017-03-21T04:06:59.189Z,999.14
2017-03-21T04:07:59.210Z,999.21
2017-03-21T04:08:59.231Z,999.17
2017-03-21T04:09:59.253Z,999.17
2017-03-21T04:10:59.276Z,999.15
2017-03-21T04:11:59.296Z,999.19
2017-03-21T04:12:59.320Z,999.22
2017-03-21T04:13:59.340Z,999.24
2017-03-21T04:14:59.361Z,999.24
2017-03-21T04:15:59.382Z,999.25
2017-03-21T04:17:59.426Z,999.23
2017-03-21T04:18:59.450Z,999.22
2017-03-21T04:19:59.469Z,999.22
2017-03-21T04:20:59.490Z,999.24
2017-03-21T04:21:59.512Z,999.21
2017-03-21T04:22:59.533Z,999.21
2017-03-21T04:23:59.555Z,999.2
2017-03-21T04:24:59.577Z,999.21
2017-03-21T04:25:59.598Z,999.24
2017-03-21T04:26:59.619Z,999.22
2017-03-21T04:27:59.642Z,999.14
2017-03-21T04:28:59.664Z,999.19
2017-03-21T04:29:59.686Z,999.23
2017-03-21T04:30:59.707Z,999.28
2017-03-21T04:32:59.751Z,999.18
2017-03-21T04:33:59.772Z,999.21
2017-03-21T04:34:59.794Z,999.2
2017-03-21T04:35:59.816Z,999.25
2017-03-21T04:36:59.838Z,999.35
2017-03-21T04:37:59.859Z,999.36
2017-03-21T04:38:59.880Z,999.32
2017-03-21T04:39:59.901Z,999.38
2017-03-21T04:40:59.925Z,999.32
2017-03-21T04:41:59.945Z,999.27
2017-03-21T04:42:59.967Z,999.27
2017-03-21T04:43:59.989Z,999.32
2017-03-21T04:45:00.009Z,999.27
2017-03-21T04:46:00.031Z,999.33
2017-03-21T04:47:00.054Z,999.31
2017-03-21T04:48:00.075Z,999.34
2017-03-21T04:49:00.095Z,999.35
2017-03-21T04:50:00.116Z,999.31
2017-03-21T04:51:00.140Z,999.31
2017-03-21T04:52:00.160Z,999.31
2017-03-21T04:53:00.182Z,999.37
2017-03-21T04:54:00.203Z,999.35
2017-03-21T04:55:00.225Z,999.37
2017-03-21T04:56:00.246Z,999.33
2017-03-21T04:57:00.268Z,999.36
2017-03-21T04:58:00.294Z,999.39
2017-03-21T04:59:00.312Z,999.43
2017-03-21T05:00:00.333Z,999.48
2017-03-21T05:01:00.356Z,999.45
2017-03-21T05:02:00.376Z,999.51
2017-03-21T05:03:00.397Z,999.47
2017-03-21T05:05:00.441Z,999.46
2017-03-21T05:06:00.463Z,999.46
2017-03-21T05:07:00.483Z,999.46
2017-03-21T05:08:00.505Z,999.46
2017-03-21T05:09:00.527Z,999.5
2017-03-21T05:10:00.549Z,999.5
2017-03-21T05:11:00.571Z,999.49
2017-03-21T05:12:00.591Z,999.5
2017-03-21T05:13:00.613Z,999.57
2017-03-21T05:14:00.636Z,999.54
2017-03-21T05:15:00.656Z,999.55
2017-03-21T05:16:00.677Z,999.6
2017-03-21T05:17:00.700Z,999.61
2017-03-21T05:18:00.721Z,999.63
2017-03-21T05:19:00.742Z,999.58
2017-03-21T05:21:00.785Z,999.59
2017-03-21T05:22:00.806Z,999.62
2017-03-21T05:23:00.828Z,999.65
2017-03-21T05:24:00.849Z,999.64
2017-03-21T05:25:00.871Z,999.62
2017-03-21T05:26:00.893Z,999.69
2017-03-21T05:27:00.914Z,999.68
2017-03-21T05:28:00.935Z,999.63
2017-03-21T05:29:00.957Z,999.65
2017-03-21T05:30:00.979Z,999.59
2017-03-21T05:31:00.999Z,999.63
2017-03-21T05:32:01.022Z,999.62
2017-03-21T05:33:01.043Z,999.72
2017-03-21T05:34:01.065Z,999.71
2017-03-21T05:35:01.087Z,999.73
2017-03-21T05:37:01.132Z,999.68
2017-03-21T05:38:01.150Z,999.7
2017-03-21T05:39:01.172Z,999.69
2017-03-21T05:40:01.193Z,999.67
2017-03-21T05:41:01.214Z,999.72
2017-03-21T05:42:01.237Z,999.77
2017-03-21T05:43:01.258Z,999.72
2017-03-21T05:44:01.279Z,999.75
2017-03-21T05:45:01.301Z,999.74
2017-03-21T05:46:01.323Z,999.78
2017-03-21T05:47:01.343Z,999.79
2017-03-21T05:48:01.364Z,999.79
2017-03-21T05:49:01.387Z,999.82
2017-03-21T05:50:01.408Z,999.82
2017-03-21T05:51:01.429Z,999.82
2017-03-21T05:53:01.473Z,999.79
2017-03-21T05:54:01.495Z,999.87
2017-03-21T05:55:01.516Z,999.85
2017-03-21T05:56:01.537Z,999.91
2017-03-21T05:57:01.558Z,999.87
2017-03-21T05:58:01.580Z,999.88
2017-03-21T05:59:01.602Z,999.95
2017-03-21T06:00:01.623Z,999.9
2017-03-21T06:01:01.645Z,999.96
2017-03-21T06:02:01.666Z,999.95
2017-03-21T06:03:01.688Z,999.99
2017-03-21T06:04:01.710Z,999.95
2017-03-21T06:05:01.732Z,999.99
2017-03-21T06:06:01.853Z,999.99
2017-03-21T06:08:01.797Z,999.96
2017-03-21T06:09:01.818Z,999.88
2017-03-21T06:10:01.841Z,999.94
2017-03-21T06:11:01.861Z,999.96
2017-03-21T06:12:01.883Z,999.94
2017-03-21T06:13:01.903Z,999.95
2017-03-21T06:14:01.926Z,999.96
2017-03-21T06:15:01.947Z,999.91
2017-03-21T06:16:01.969Z,999.97
2017-03-21T06:17:01.990Z,999.98
2017-03-21T06:18:02.012Z,999.96
2017-03-21T06:19:02.034Z,999.92
2017-03-21T06:20:02.055Z,999.96
2017-03-21T06:21:02.077Z,1000
2017-03-21T06:22:02.099Z,999.96
2017-03-21T06:23:02.120Z,1000.01
2017-03-21T06:24:02.142Z,999.96
2017-03-21T06:25:02.163Z,999.95
2017-03-21T06:26:02.185Z,999.97
2017-03-21T06:27:02.206Z,1000.02
2017-03-21T06:28:02.228Z,999.95
2017-03-21T06:29:02.251Z,999.96
2017-03-21T06:30:02.272Z,999.95
2017-03-21T06:31:02.292Z,999.96
2017-03-21T06:32:02.314Z,999.94
2017-03-21T06:33:02.337Z,999.98
2017-03-21T06:34:02.359Z,999.97
2017-03-21T06:35:02.380Z,999.99
2017-03-21T06:36:02.402Z,999.97
2017-03-21T06:37:02.424Z,999.96
2017-03-21T06:38:02.445Z,1000.01
2017-03-21T06:40:02.489Z,1000.15
2017-03-21T06:41:02.510Z,1000.1
2017-03-21T06:42:02.532Z,1000.15
2017-03-21T06:43:02.555Z,1000.1
2017-03-21T06:44:02.577Z,1000.17
2017-03-21T06:45:02.601Z,1000.27
2017-03-21T06:46:02.620Z,1000.11
2017-03-21T06:47:02.643Z,1000.1
2017-03-21T06:48:02.666Z,1000.1
2017-03-21T06:49:02.687Z,1000.13
2017-03-21T06:50:02.710Z,1000.2
2017-03-21T06:51:02.733Z,1000.16
2017-03-21T06:52:02.754Z,1000.15
2017-03-21T06:53:02.777Z,1000.14
2017-03-21T06:54:02.799Z,1000.16
2017-03-21T06:56:02.847Z,1000.21
2017-03-21T06:57:02.867Z,1000.21
2017-03-21T06:58:02.890Z,1000.2
2017-03-21T06:59:02.914Z,1000.2
2017-03-21T07:00:02.935Z,1000.21
2017-03-21T07:01:02.958Z,1000.31
2017-03-21T07:02:02.980Z,1000.32
2017-03-21T07:03:03.010Z,1000.31
2017-03-21T07:04:03.033Z,1000.35
2017-03-21T07:05:03.057Z,1000.42
2017-03-21T07:06:03.078Z,1000.45
2017-03-21T07:07:03.092Z,1000.52
2017-03-21T07:08:03.126Z,1000.53
2017-03-21T07:09:03.137Z,1000.66
2017-03-21T07:10:03.168Z,1000.68
2017-03-21T07:12:03.204Z,1000.75
2017-03-21T07:13:03.226Z,1000.73
2017-03-21T07:14:03.249Z,1000.78
2017-03-21T07:15:03.269Z,1000.73
2017-03-21T07:16:03.293Z,1000.97
2017-03-21T07:17:03.314Z,1000.91
2017-03-21T07:18:03.337Z,1000.89
2017-03-21T07:19:03.358Z,1000.94
2017-03-21T07:20:03.381Z,1000.91
2017-03-21T07:21:03.402Z,1000.89
2017-03-21T07:22:03.422Z,1000.99
2017-03-21T07:23:03.445Z,1000.93
2017-03-21T07:24:03.469Z,1000.97
2017-03-21T07:25:03.490Z,1000.99
2017-03-21T07:26:03.511Z,1001.04
2017-03-21T07:28:03.553Z,1001.07
2017-03-21T07:29:03.575Z,1001.04
2017-03-21T07:30:03.596Z,1001.07
2017-03-21T07:31:03.619Z,1001.06
2017-03-21T07:32:03.640Z,1001.06
2017-03-21T07:33:03.661Z,1001.1
2017-03-21T07:34:03.682Z,1001.14
2017-03-21T07:35:03.704Z,1001.11
2017-03-21T07:36:03.726Z,1001.14
2017-03-21T07:37:03.746Z,1001.18
2017-03-21T07:38:03.769Z,1001.16
2017-03-21T07:39:03.791Z,1001.22
2017-03-21T07:40:03.812Z,1001.23
2017-03-21T07:41:03.834Z,1001.23
2017-03-21T07:43:03.878Z,1001.26
2017-03-21T07:44:03.899Z,1001.25
2017-03-21T07:45:03.921Z,1001.25
2017-03-21T07:46:03.942Z,1001.17
2017-03-21T07:47:03.964Z,1001.22
2017-03-21T07:48:03.985Z,1001.21
2017-03-21T07:49:04.008Z,1001.19
2017-03-21T07:50:04.029Z,1001.16
2017-03-21T07:51:04.050Z,1001.16
2017-03-21T07:52:04.072Z,1001.13
2017-03-21T07:53:04.094Z,1001.1
2017-03-21T07:54:04.117Z,1001.13
2017-03-21T07:55:04.139Z,1001.09
2017-03-21T07:56:04.162Z,1001.12
2017-03-21T07:57:04.182Z,1001.15
2017-03-21T07:58:04.205Z,1001.17
2017-03-21T07:59:04.228Z,1001.16
2017-03-21T08:00:04.249Z,1001.14
2017-03-21T08:01:04.270Z,1001.12
2017-03-21T08:02:04.292Z,1001.17
2017-03-21T08:03:04.315Z,1001.15
2017-03-21T08:04:04.337Z,1001.15
2017-03-21T08:05:04.360Z,1001.17
2017-03-21T08:06:04.382Z,1001.24
2017-03-21T08:07:04.404Z,1001.26
2017-03-21T08:08:04.427Z,1001.3
2017-03-21T08:09:04.450Z,1001.29
2017-03-21T08:10:04.470Z,1001.25
2017-03-21T08:11:04.494Z,1001.22
2017-03-21T08:12:04.517Z,1001.13
2017-03-21T08:13:04.538Z,1001.11
2017-03-21T08:15:04.584Z,1001.12
2017-03-21T08:16:04.607Z,1001.1
2017-03-21T08:17:04.629Z,1001.15
2017-03-21T08:18:04.653Z,1001.18
2017-03-21T08:19:04.675Z,1001.18
2017-03-21T08:20:04.699Z,1001.23
2017-03-21T08:21:04.721Z,1001.27
2017-03-21T08:22:04.745Z,1001.3
2017-03-21T08:23:04.768Z,1001.26
2017-03-21T08:24:04.792Z,1001.27
2017-03-21T08:25:04.820Z,1001.24
2017-03-21T08:26:04.839Z,1001.21
2017-03-21T08:27:04.864Z,1001.24
2017-03-21T08:28:04.888Z,1001.21
2017-03-21T08:29:04.912Z,1001.26
2017-03-21T08:31:04.960Z,1001.26
2017-03-21T08:32:04.985Z,1001.3
2017-03-21T08:33:05.007Z,1001.35
2017-03-21T08:34:05.032Z,1001.39
2017-03-21T08:35:05.055Z,1001.41
2017-03-21T08:36:05.080Z,1001.42
2017-03-21T08:37:05.104Z,1001.46
2017-03-21T08:38:05.127Z,1001.46
2017-03-21T08:39:05.152Z,1001.5
2017-03-21T08:40:05.176Z,1001.47
2017-03-21T08:41:05.202Z,1001.49
2017-03-21T08:42:05.227Z,1001.54
2017-03-21T08:43:05.250Z,1001.52
2017-03-21T08:44:05.275Z,1001.61
2017-03-21T08:45:05.299Z,1001.59
2017-03-21T08:47:05.352Z,1001.6
2017-03-21T08:48:05.375Z,1001.63
2017-03-21T08:49:05.399Z,1001.66
2017-03-21T08:50:05.427Z,1001.65
2017-03-21T08:51:05.449Z,1001.74
2017-03-21T08:52:05.480Z,1001.73
2017-03-21T08:53:05.500Z,1001.74
2017-03-21T08:54:05.523Z,1001.74
2017-03-21T08:55:05.550Z,1001.84
2017-03-21T08:56:05.576Z,1001.86
2017-03-21T08:57:05.601Z,1001.84
2017-03-21T08:58:05.775Z,1001.84
2017-03-21T08:59:05.651Z,1001.83
2017-03-21T09:00:05.676Z,1001.89
2017-03-21T09:01:05.702Z,1001.96
2017-03-21T09:03:05.752Z,1001.92
2017-03-21T09:04:05.778Z,1001.9
2017-03-21T09:05:05.805Z,1001.89
2017-03-21T09:06:05.828Z,1001.89
2017-03-21T09:07:05.885Z,1001.92
2017-03-21T09:08:05.878Z,1001.85
2017-03-21T09:09:05.904Z,1001.84
2017-03-21T09:10:05.928Z,1001.87
2017-03-21T09:11:05.953Z,1001.95
2017-03-21T09:12:06.004Z,1001.92
2017-03-21T09:13:06.003Z,1001.94
2017-03-21T09:14:06.028Z,1001.96
2017-03-21T09:15:06.053Z,1001.95
2017-03-21T09:16:06.078Z,1001.89
2017-03-21T09:18:06.128Z,1001.95
2017-03-21T09:19:06.152Z,1001.95
2017-03-21T09:20:06.177Z,1001.96
2017-03-21T09:21:06.202Z,1001.97
2017-03-21T09:22:06.227Z,1001.92
2017-03-21T09:23:06.251Z,1001.96
2017-03-21T09:24:06.275Z,1001.92
2017-03-21T09:25:06.300Z,1001.94
2017-03-21T09:26:06.325Z,1001.93
2017-03-21T09:27:06.350Z,1001.89
2017-03-21T09:28:06.375Z,1001.86
2017-03-21T09:29:06.398Z,1001.83
2017-03-21T09:30:06.423Z,1001.75
2017-03-21T09:31:06.447Z,1001.8
2017-03-21T09:32:06.471Z,1001.78
2017-03-21T09:33:06.497Z,1001.75
2017-03-21T09:34:06.521Z,1001.8
2017-03-21T09:35:06.546Z,1001.74
2017-03-21T09:36:06.571Z,1001.71
2017-03-21T09:37:06.596Z,1001.68
2017-03-21T09:38:06.620Z,1001.66
2017-03-21T09:39:06.646Z,1001.72
2017-03-21T09:40:06.776Z,1001.73
2017-03-21T09:41:06.701Z,1001.68
2017-03-21T09:42:06.720Z,1001.67
2017-03-21T09:43:06.745Z,1001.63
2017-03-21T09:44:06.769Z,1001.63
2017-03-21T09:45:06.794Z,1001.6
2017-03-21T09:46:06.820Z,1001.56
2017-03-21T09:47:06.844Z,1001.6
2017-03-21T09:48:06.868Z,1001.57
2017-03-21T09:50:06.918Z,1001.71
2017-03-21T09:51:06.944Z,1001.84
2017-03-21T09:52:06.967Z,1001.79
2017-03-21T09:53:06.993Z,1001.79
2017-03-21T09:54:07.018Z,1001.78
2017-03-21T09:55:07.043Z,1001.87
2017-03-21T09:56:07.067Z,1001.82
2017-03-21T09:57:07.093Z,1001.8
2017-03-21T09:58:07.119Z,1001.86
2017-03-21T09:59:07.144Z,1001.84
2017-03-21T10:00:07.168Z,1001.84
2017-03-21T10:01:07.193Z,1001.82
2017-03-21T10:02:07.217Z,1001.79
2017-03-21T10:03:07.241Z,1001.81
2017-03-21T10:04:07.266Z,1001.79
2017-03-21T10:06:07.316Z,1001.82
2017-03-21T10:07:07.340Z,1001.8
2017-03-21T10:08:07.363Z,1001.82
2017-03-21T10:09:07.388Z,1001.86
2017-03-21T10:10:07.412Z,1001.86
2017-03-21T10:11:07.437Z,1001.87
2017-03-21T10:12:07.460Z,1001.94
2017-03-21T10:13:07.484Z,1001.91
2017-03-21T10:14:07.508Z,1001.94
2017-03-21T10:15:07.532Z,1001.95
2017-03-21T10:16:07.557Z,1002.01
2017-03-21T10:17:07.581Z,1002
2017-03-21T10:18:07.605Z,1002.01
2017-03-21T10:19:07.629Z,1002.03
2017-03-21T10:20:07.653Z,1002.03
2017-03-21T10:22:07.701Z,1002.15
2017-03-21T10:23:07.725Z,1002.1
2017-03-21T10:24:07.749Z,1002.16
2017-03-21T10:25:07.801Z,1002.14
2017-03-21T10:26:07.796Z,1002.2
2017-03-21T10:27:07.820Z,1002.21
2017-03-21T10:28:07.844Z,1002.28
2017-03-21T10:29:07.867Z,1002.26
2017-03-21T10:30:07.891Z,1002.25
2017-03-21T10:31:07.915Z,1002.24
2017-03-21T10:32:07.938Z,1002.26
2017-03-21T10:33:07.963Z,1002.21
2017-03-21T10:34:07.987Z,1002.28
2017-03-21T10:35:08.011Z,1002.26
2017-03-21T10:36:08.034Z,1002.27
2017-03-21T10:38:08.083Z,1002.22
2017-03-21T10:39:08.107Z,1002.19
2017-03-21T10:40:08.130Z,1002.16
2017-03-21T10:41:08.153Z,1002.18
2017-03-21T10:42:08.178Z,1002.2
2017-03-21T10:43:08.202Z,1002.23
2017-03-21T10:44:08.225Z,1002.21
2017-03-21T10:45:08.250Z,1002.2
2017-03-21T10:46:08.273Z,1002.22
2017-03-21T10:47:08.297Z,1002.24
2017-03-21T10:48:08.320Z,1002.21
2017-03-21T10:49:08.345Z,1002.22
2017-03-21T10:50:08.368Z,1002.23
2017-03-21T10:51:08.392Z,1002.22
2017-03-21T10:53:08.476Z,1002.18
2017-03-21T10:54:08.464Z,1002.13
2017-03-21T10:55:08.488Z,1002.23
2017-03-21T10:56:08.511Z,1002.19
2017-03-21T10:57:08.536Z,1002.23
2017-03-21T10:58:08.559Z,1002.24
2017-03-21T10:59:08.583Z,1002.21
2017-03-21T11:00:08.608Z,1002.19
2017-03-21T11:01:08.633Z,1002.21
2017-03-21T11:02:08.654Z,1002.17
2017-03-21T11:03:08.679Z,1002.14
2017-03-21T11:04:08.702Z,1002.25
2017-03-21T11:05:08.725Z,1002.21
2017-03-21T11:06:08.750Z,1002.24
2017-03-21T11:07:08.774Z,1002.2
2017-03-21T11:08:08.798Z,1002.17
2017-03-21T11:09:08.821Z,1002.19
2017-03-21T11:10:08.845Z,1002.27
2017-03-21T11:11:08.869Z,1002.26
2017-03-21T11:12:08.893Z,1002.22
2017-03-21T11:13:08.916Z,1002.23
2017-03-21T11:14:08.941Z,1002.23
2017-03-21T11:15:08.968Z,1002.22
2017-03-21T11:16:08.988Z,1002.22
2017-03-21T11:17:09.012Z,1002.22
2017-03-21T11:18:09.036Z,1002.23
2017-03-21T11:19:09.060Z,1002.18
2017-03-21T11:20:09.084Z,1002.25
2017-03-21T11:21:09.108Z,1002.16
2017-03-21T11:22:09.132Z,1002.2
2017-03-21T11:23:09.155Z,1002.22
2017-03-21T11:25:09.204Z,1002.24
2017-03-21T11:26:09.228Z,1002.21
2017-03-21T11:27:09.250Z,1002.27
2017-03-21T11:28:09.275Z,1002.25
2017-03-21T11:29:09.299Z,1002.2
2017-03-21T11:30:09.523Z,1002.24
2017-03-21T11:31:09.346Z,1002.23
2017-03-21T11:32:09.370Z,1002.27
2017-03-21T11:33:09.395Z,1002.29
2017-03-21T11:34:09.468Z,1002.29
2017-03-21T11:35:09.440Z,1002.35
2017-03-21T11:36:09.464Z,1002.37
2017-03-21T11:37:09.489Z,1002.32
2017-03-21T11:38:09.512Z,1002.32
2017-03-21T11:39:09.536Z,1002.34
2017-03-21T11:41:09.585Z,1002.41
2017-03-21T11:42:09.608Z,1002.37
2017-03-21T11:43:09.632Z,1002.38
2017-03-21T11:44:09.656Z,1002.36
2017-03-21T11:45:09.679Z,1002.38
2017-03-21T11:46:09.703Z,1002.36
2017-03-21T11:47:10.027Z,1002.43
2017-03-21T11:48:09.751Z,1002.36
2017-03-21T11:49:09.774Z,1002.42
2017-03-21T11:50:09.798Z,1002.39
2017-03-21T11:51:09.822Z,1002.45
2017-03-21T11:52:09.846Z,1002.38
2017-03-21T11:53:09.869Z,1002.45
2017-03-21T11:54:09.893Z,1002.47
2017-03-21T11:55:09.917Z,1002.5
2017-03-21T11:57:09.964Z,1002.48
2017-03-21T11:58:09.988Z,1002.44
2017-03-21T11:59:10.012Z,1002.49
2017-03-21T12:00:10.034Z,1002.47
2017-03-21T12:01:10.058Z,1002.48
2017-03-21T12:02:10.082Z,1002.53
2017-03-21T12:03:10.107Z,1002.46
2017-03-21T12:04:10.130Z,1002.48
2017-03-21T12:05:10.154Z,1002.44
2017-03-21T12:06:10.180Z,1002.4
2017-03-21T12:07:10.202Z,1002.45
2017-03-21T12:08:10.224Z,1002.45
2017-03-21T12:09:10.249Z,1002.44
2017-03-21T12:10:10.272Z,1002.46
2017-03-21T12:11:10.296Z,1002.45
2017-03-21T12:13:10.343Z,1002.43
2017-03-21T12:14:10.367Z,1002.42
2017-03-21T12:15:10.391Z,1002.43
2017-03-21T12:16:10.414Z,1002.47
2017-03-21T12:17:10.438Z,1002.43
2017-03-21T12:18:10.461Z,1002.41
2017-03-21T12:19:10.485Z,1002.45
2017-03-21T12:20:10.508Z,1002.47
2017-03-21T12:21:10.539Z,1002.43
2017-03-21T12:22:10.556Z,1002.36
2017-03-21T12:23:10.580Z,1002.32
2017-03-21T12:24:10.604Z,1002.32
2017-03-21T12:25:10.628Z,1002.36
2017-03-21T12:26:10.652Z,1002.34
2017-03-21T12:28:10.700Z,1002.42
2017-03-21T12:29:10.723Z,1002.43
2017-03-21T12:30:10.748Z,1002.46
2017-03-21T12:31:10.772Z,1002.4
2017-03-21T12:32:10.794Z,1002.41
2017-03-21T12:33:10.819Z,1002.47
2017-03-21T12:34:10.842Z,1002.48
2017-03-21T12:35:10.870Z,1002.48
2017-03-21T12:36:10.889Z,1002.44
2017-03-21T12:37:10.913Z,1002.43
2017-03-21T12:38:10.937Z,1002.45
2017-03-21T12:39:10.962Z,1002.43
2017-03-21T12:40:10.984Z,1002.45
2017-03-21T12:41:11.008Z,1002.46
2017-03-21T12:42:11.032Z,1002.41
2017-03-21T12:43:11.056Z,1002.43
2017-03-21T12:44:11.080Z,1002.4
2017-03-21T12:45:11.103Z,1002.4
2017-03-21T12:46:11.127Z,1002.41
2017-03-21T12:47:11.149Z,1002.4
2017-03-21T12:48:11.173Z,1002.43
2017-03-21T12:49:11.197Z,1002.43
2017-03-21T12:50:11.220Z,1002.37
2017-03-21T12:51:11.243Z,1002.32
2017-03-21T12:52:11.267Z,1002.31
2017-03-21T12:53:11.292Z,1002.24
2017-03-21T12:54:11.314Z,1002.24
2017-03-21T12:55:11.337Z,1002.18
2017-03-21T12:56:11.362Z,1002.21
2017-03-21T12:57:11.385Z,1002.24
2017-03-21T12:58:11.408Z,1002.2
2017-03-21T13:00:11.456Z,1002.22
2017-03-21T13:01:11.480Z,1002.25